sensor_id;sensor_type;location;lat;lon;timestamp;pressure;altitude;pressure_sealevel;temperature
79488;BMP180;68949;53.176;18.088;2024-03-08T00:01:17;101135.80;;;
79488;BMP180;68949;53.176;18.088;2024-03-08T00:03:45;101135.00;;;
79488;BMP180;68949;53.176;18.088;2024-03-08T00:06:12;101133.40;;;
79488;BMP180;68949;53.176;18.088;2024-03-08T00:08:38;101131.80;;;
79488;BMP180;68949;53.176;18.088;2024-03-08T00:11:05;101132.60;;;
79488;BMP180;68949;53.176;18.088;2024-03-08T00:13:32;101133.00;;;
79488;BMP180;68949;53.176;18.088;2024-03-08T00:15:58;101121.60;;;
79488;BMP180;68949;53.176;18.088;2024-03-08T00:18:25;101124.00;;;
79488;BMP180;68949;53.176;18.088;2024-03-08T00:20:53;101125.80;;;
79488;BMP180;68949;53.176;18.088;2024-03-08T00:23:19;101128.00;;;
79488;BMP180;68949;53.176;18.088;2024-03-08T00:25:46;101125.40;;;
79488;BMP180;68949;53.176;18.088;2024-03-08T00:28:12;101122.40;;;
79488;BMP180;68949;53.176;18.088;2024-03-08T00:30:41;101126.80;;;
79488;BMP180;68949;53.176;18.088;2024-03-08T00:33:09;101124.20;;;
79488;BMP180;68949;53.176;18.088;2024-03-08T00:35:35;101128.20;;;
79488;BMP180;68949;53.176;18.088;2024-03-08T00:38:02;101128.80;;;
79488;BMP180;68949;53.176;18.088;2024-03-08T00:40:29;101125.20;;;
79488;BMP180;68949;53.176;18.088;2024-03-08T00:42:55;101125.60;;;
79488;BMP180;68949;53.176;18.088;2024-03-08T00:45:22;101119.00;;;
79488;BMP180;68949;53.176;18.088;2024-03-08T00:47:50;101120.40;;;
79488;BMP180;68949;53.176;18.088;2024-03-08T00:50:16;101122.60;;;
79488;BMP180;68949;53.176;18.088;2024-03-08T00:52:44;101123.20;;;
79488;BMP180;68949;53.176;18.088;2024-03-08T00:55:11;101123.20;;;
79488;BMP180;68949;53.176;18.088;2024-03-08T00:57:38;101123.60;;;
79488;BMP180;68949;53.176;18.088;2024-03-08T01:00:06;101123.80;;;
79488;BMP180;68949;53.176;18.088;2024-03-08T01:02:36;101116.60;;;
79488;BMP180;68949;53.176;18.088;2024-03-08T01:05:03;101112.40;;;
79488;BMP180;68949;53.176;18.088;2024-03-08T01:07:33;101115.00;;;
79488;BMP180;68949;53.176;18.088;2024-03-08T01:10:04;101112.20;;;
79488;BMP180;68949;53.176;18.088;2024-03-08T01:12:31;101111.40;;;
79488;BMP180;68949;53.176;18.088;2024-03-08T01:14:57;101110.80;;;
79488;BMP180;68949;53.176;18.088;2024-03-08T01:17:24;101105.80;;;
79488;BMP180;68949;53.176;18.088;2024-03-08T01:19:51;101104.80;;;
79488;BMP180;68949;53.176;18.088;2024-03-08T01:22:18;101109.80;;;
79488;BMP180;68949;53.176;18.088;2024-03-08T01:24:44;101099.80;;;
79488;BMP180;68949;53.176;18.088;2024-03-08T01:27:11;101090.40;;;
79488;BMP180;68949;53.176;18.088;2024-03-08T01:29:39;101099.00;;;
79488;BMP180;68949;53.176;18.088;2024-03-08T01:32:05;101097.20;;;
79488;BMP180;68949;53.176;18.088;2024-03-08T01:34:32;101090.00;;;
79488;BMP180;68949;53.176;18.088;2024-03-08T01:36:59;101090.80;;;
79488;BMP180;68949;53.176;18.088;2024-03-08T01:39:27;101092.00;;;
79488;BMP180;68949;53.176;18.088;2024-03-08T01:41:54;101096.20;;;
79488;BMP180;68949;53.176;18.088;2024-03-08T01:44:20;101094.00;;;
79488;BMP180;68949;53.176;18.088;2024-03-08T01:46:49;101086.00;;;
79488;BMP180;68949;53.176;18.088;2024-03-08T01:49:18;101089.20;;;
79488;BMP180;68949;53.176;18.088;2024-03-08T01:51:48;101085.80;;;
79488;BMP180;68949;53.176;18.088;2024-03-08T01:54:18;101083.20;;;
79488;BMP180;68949;53.176;18.088;2024-03-08T01:56:47;101078.00;;;
79488;BMP180;68949;53.176;18.088;2024-03-08T01:59:15;101073.60;;;
79488;BMP180;68949;53.176;18.088;2024-03-08T02:01:42;101070.00;;;
79488;BMP180;68949;53.176;18.088;2024-03-08T02:04:10;101072.40;;;
79488;BMP180;68949;53.176;18.088;2024-03-08T02:06:37;101071.00;;;
79488;BMP180;68949;53.176;18.088;2024-03-08T02:09:05;101066.00;;;
79488;BMP180;68949;53.176;18.088;2024-03-08T02:11:34;101063.80;;;
79488;BMP180;68949;53.176;18.088;2024-03-08T02:14:02;101062.20;;;
79488;BMP180;68949;53.176;18.088;2024-03-08T02:16:29;101066.20;;;
79488;BMP180;68949;53.176;18.088;2024-03-08T02:18:55;101057.00;;;
79488;BMP180;68949;53.176;18.088;2024-03-08T02:21:23;101054.60;;;
79488;BMP180;68949;53.176;18.088;2024-03-08T02:23:50;101056.40;;;
79488;BMP180;68949;53.176;18.088;2024-03-08T02:26:18;101049.40;;;
79488;BMP180;68949;53.176;18.088;2024-03-08T02:28:46;101048.40;;;
79488;BMP180;68949;53.176;18.088;2024-03-08T02:31:13;101050.60;;;
79488;BMP180;68949;53.176;18.088;2024-03-08T02:33:39;101051.20;;;
79488;BMP180;68949;53.176;18.088;2024-03-08T02:36:06;101050.20;;;
79488;BMP180;68949;53.176;18.088;2024-03-08T02:38:33;101043.80;;;
79488;BMP180;68949;53.176;18.088;2024-03-08T02:40:59;101043.80;;;
79488;BMP180;68949;53.176;18.088;2024-03-08T02:43:26;101043.60;;;
79488;BMP180;68949;53.176;18.088;2024-03-08T02:45:53;101041.80;;;
79488;BMP180;68949;53.176;18.088;2024-03-08T02:48:20;101041.00;;;
79488;BMP180;68949;53.176;18.088;2024-03-08T02:50:49;101036.80;;;
79488;BMP180;68949;53.176;18.088;2024-03-08T02:53:17;101040.60;;;
79488;BMP180;68949;53.176;18.088;2024-03-08T02:55:45;101043.40;;;
79488;BMP180;68949;53.176;18.088;2024-03-08T02:58:13;101040.60;;;
79488;BMP180;68949;53.176;18.088;2024-03-08T03:00:41;101035.40;;;
79488;BMP180;68949;53.176;18.088;2024-03-08T03:03:08;101034.00;;;
79488;BMP180;68949;53.176;18.088;2024-03-08T03:05:34;101038.00;;;
79488;BMP180;68949;53.176;18.088;2024-03-08T03:08:01;101039.20;;;
79488;BMP180;68949;53.176;18.088;2024-03-08T03:10:30;101033.40;;;
79488;BMP180;68949;53.176;18.088;2024-03-08T03:12:57;101038.80;;;
79488;BMP180;68949;53.176;18.088;2024-03-08T03:15:24;101035.20;;;
79488;BMP180;68949;53.176;18.088;2024-03-08T03:17:51;101033.20;;;
79488;BMP180;68949;53.176;18.088;2024-03-08T03:20:18;101032.00;;;
79488;BMP180;68949;53.176;18.088;2024-03-08T03:22:59;101029.20;;;
79488;BMP180;68949;53.176;18.088;2024-03-08T03:25:28;101026.20;;;
79488;BMP180;68949;53.176;18.088;2024-03-08T03:28:00;101029.20;;;
79488;BMP180;68949;53.176;18.088;2024-03-08T03:30:27;101028.20;;;
79488;BMP180;68949;53.176;18.088;2024-03-08T03:32:57;101024.40;;;
79488;BMP180;68949;53.176;18.088;2024-03-08T03:35:29;101021.40;;;
79488;BMP180;68949;53.176;18.088;2024-03-08T03:37:56;101022.80;;;
79488;BMP180;68949;53.176;18.088;2024-03-08T03:40:34;101021.40;;;
79488;BMP180;68949;53.176;18.088;2024-03-08T03:43:02;101018.60;;;
79488;BMP180;68949;53.176;18.088;2024-03-08T03:45:30;101020.60;;;
79488;BMP180;68949;53.176;18.088;2024-03-08T03:48:06;101015.40;;;
79488;BMP180;68949;53.176;18.088;2024-03-08T03:50:32;101019.80;;;
79488;BMP180;68949;53.176;18.088;2024-03-08T03:53:01;101017.60;;;
79488;BMP180;68949;53.176;18.088;2024-03-08T03:55:29;101021.80;;;
79488;BMP180;68949;53.176;18.088;2024-03-08T03:57:56;101013.60;;;
79488;BMP180;68949;53.176;18.088;2024-03-08T04:00:22;101012.80;;;
79488;BMP180;68949;53.176;18.088;2024-03-08T04:02:49;101011.60;;;
79488;BMP180;68949;53.176;18.088;2024-03-08T04:05:17;101015.20;;;
79488;BMP180;68949;53.176;18.088;2024-03-08T04:07:44;101012.80;;;
79488;BMP180;68949;53.176;18.088;2024-03-08T04:10:12;101011.40;;;
79488;BMP180;68949;53.176;18.088;2024-03-08T04:12:39;101010.40;;;
79488;BMP180;68949;53.176;18.088;2024-03-08T04:15:07;101012.20;;;
79488;BMP180;68949;53.176;18.088;2024-03-08T04:17:35;101011.80;;;
79488;BMP180;68949;53.176;18.088;2024-03-08T04:20:06;101011.20;;;
79488;BMP180;68949;53.176;18.088;2024-03-08T04:22:41;101006.20;;;
79488;BMP180;68949;53.176;18.088;2024-03-08T04:25:08;101007.80;;;
79488;BMP180;68949;53.176;18.088;2024-03-08T04:27:36;101002.20;;;
79488;BMP180;68949;53.176;18.088;2024-03-08T04:30:04;101005.00;;;
79488;BMP180;68949;53.176;18.088;2024-03-08T04:32:34;101001.00;;;
79488;BMP180;68949;53.176;18.088;2024-03-08T04:35:01;100997.40;;;
79488;BMP180;68949;53.176;18.088;2024-03-08T04:37:28;100994.00;;;
79488;BMP180;68949;53.176;18.088;2024-03-08T04:39:57;100992.80;;;
79488;BMP180;68949;53.176;18.088;2024-03-08T04:42:24;100991.40;;;
79488;BMP180;68949;53.176;18.088;2024-03-08T04:44:51;100995.20;;;
79488;BMP180;68949;53.176;18.088;2024-03-08T04:47:20;100991.80;;;
79488;BMP180;68949;53.176;18.088;2024-03-08T04:49:46;100992.60;;;
79488;BMP180;68949;53.176;18.088;2024-03-08T04:52:13;100988.20;;;
79488;BMP180;68949;53.176;18.088;2024-03-08T04:54:40;100991.40;;;
79488;BMP180;68949;53.176;18.088;2024-03-08T04:57:06;100990.60;;;
79488;BMP180;68949;53.176;18.088;2024-03-08T04:59:34;100992.60;;;
79488;BMP180;68949;53.176;18.088;2024-03-08T05:02:00;100992.20;;;
79488;BMP180;68949;53.176;18.088;2024-03-08T05:04:27;100984.40;;;
79488;BMP180;68949;53.176;18.088;2024-03-08T05:06:55;100985.80;;;
79488;BMP180;68949;53.176;18.088;2024-03-08T05:09:22;100984.00;;;
79488;BMP180;68949;53.176;18.088;2024-03-08T05:11:49;100983.20;;;
79488;BMP180;68949;53.176;18.088;2024-03-08T05:14:16;100983.40;;;
79488;BMP180;68949;53.176;18.088;2024-03-08T05:16:44;100988.60;;;
79488;BMP180;68949;53.176;18.088;2024-03-08T05:19:20;100987.60;;;
79488;BMP180;68949;53.176;18.088;2024-03-08T05:21:49;100988.60;;;
79488;BMP180;68949;53.176;18.088;2024-03-08T05:24:17;100988.40;;;
79488;BMP180;68949;53.176;18.088;2024-03-08T05:26:45;100989.20;;;
79488;BMP180;68949;53.176;18.088;2024-03-08T05:29:12;100984.40;;;
79488;BMP180;68949;53.176;18.088;2024-03-08T05:31:50;100982.40;;;
79488;BMP180;68949;53.176;18.088;2024-03-08T05:34:19;100981.60;;;
79488;BMP180;68949;53.176;18.088;2024-03-08T05:36:49;100980.00;;;
79488;BMP180;68949;53.176;18.088;2024-03-08T05:39:18;100984.60;;;
79488;BMP180;68949;53.176;18.088;2024-03-08T05:41:45;100983.60;;;
79488;BMP180;68949;53.176;18.088;2024-03-08T05:44:13;100982.60;;;
79488;BMP180;68949;53.176;18.088;2024-03-08T05:46:40;100981.80;;;
79488;BMP180;68949;53.176;18.088;2024-03-08T05:49:07;100978.00;;;
79488;BMP180;68949;53.176;18.088;2024-03-08T05:51:38;100978.80;;;
79488;BMP180;68949;53.176;18.088;2024-03-08T05:54:11;100976.80;;;
79488;BMP180;68949;53.176;18.088;2024-03-08T05:56:39;100985.20;;;
79488;BMP180;68949;53.176;18.088;2024-03-08T05:59:11;100986.80;;;
79488;BMP180;68949;53.176;18.088;2024-03-08T06:01:37;100985.20;;;
79488;BMP180;68949;53.176;18.088;2024-03-08T06:04:04;100984.00;;;
79488;BMP180;68949;53.176;18.088;2024-03-08T06:06:31;100983.20;;;
79488;BMP180;68949;53.176;18.088;2024-03-08T06:08:58;100983.60;;;
79488;BMP180;68949;53.176;18.088;2024-03-08T06:11:25;100985.60;;;
79488;BMP180;68949;53.176;18.088;2024-03-08T06:13:54;100982.20;;;
79488;BMP180;68949;53.176;18.088;2024-03-08T06:16:27;100986.40;;;
79488;BMP180;68949;53.176;18.088;2024-03-08T06:18:56;100988.00;;;
79488;BMP180;68949;53.176;18.088;2024-03-08T06:21:24;100986.80;;;
79488;BMP180;68949;53.176;18.088;2024-03-08T06:23:54;100984.00;;;
79488;BMP180;68949;53.176;18.088;2024-03-08T06:26:24;100986.80;;;
79488;BMP180;68949;53.176;18.088;2024-03-08T06:28:51;100984.00;;;
79488;BMP180;68949;53.176;18.088;2024-03-08T06:31:18;100987.60;;;
79488;BMP180;68949;53.176;18.088;2024-03-08T06:33:46;100988.60;;;
79488;BMP180;68949;53.176;18.088;2024-03-08T06:36:16;100990.00;;;
79488;BMP180;68949;53.176;18.088;2024-03-08T06:38:46;100984.20;;;
79488;BMP180;68949;53.176;18.088;2024-03-08T06:41:12;100983.20;;;
79488;BMP180;68949;53.176;18.088;2024-03-08T06:43:46;100986.60;;;
79488;BMP180;68949;53.176;18.088;2024-03-08T06:46:15;100981.00;;;
79488;BMP180;68949;53.176;18.088;2024-03-08T06:48:42;100984.40;;;
79488;BMP180;68949;53.176;18.088;2024-03-08T06:51:08;100982.00;;;
79488;BMP180;68949;53.176;18.088;2024-03-08T06:53:35;100986.20;;;
79488;BMP180;68949;53.176;18.088;2024-03-08T06:56:02;100985.40;;;
79488;BMP180;68949;53.176;18.088;2024-03-08T06:58:29;100982.60;;;
79488;BMP180;68949;53.176;18.088;2024-03-08T07:00:55;100982.20;;;
79488;BMP180;68949;53.176;18.088;2024-03-08T07:03:27;100983.80;;;
79488;BMP180;68949;53.176;18.088;2024-03-08T07:05:56;100986.20;;;
79488;BMP180;68949;53.176;18.088;2024-03-08T07:08:25;100985.60;;;
79488;BMP180;68949;53.176;18.088;2024-03-08T07:10:54;100995.60;;;
79488;BMP180;68949;53.176;18.088;2024-03-08T07:13:20;100994.40;;;
79488;BMP180;68949;53.176;18.088;2024-03-08T07:15:48;100989.60;;;
79488;BMP180;68949;53.176;18.088;2024-03-08T07:18:15;100988.20;;;
79488;BMP180;68949;53.176;18.088;2024-03-08T07:20:41;100987.60;;;
79488;BMP180;68949;53.176;18.088;2024-03-08T07:23:10;100990.80;;;
79488;BMP180;68949;53.176;18.088;2024-03-08T07:25:37;100993.60;;;
79488;BMP180;68949;53.176;18.088;2024-03-08T07:28:05;100991.80;;;
79488;BMP180;68949;53.176;18.088;2024-03-08T07:30:33;100994.60;;;
79488;BMP180;68949;53.176;18.088;2024-03-08T07:33:12;100987.00;;;
79488;BMP180;68949;53.176;18.088;2024-03-08T07:35:39;100982.80;;;
79488;BMP180;68949;53.176;18.088;2024-03-08T07:38:08;100984.40;;;
79488;BMP180;68949;53.176;18.088;2024-03-08T07:40:37;100979.80;;;
79488;BMP180;68949;53.176;18.088;2024-03-08T07:43:11;100980.00;;;
79488;BMP180;68949;53.176;18.088;2024-03-08T07:45:38;100979.20;;;
79488;BMP180;68949;53.176;18.088;2024-03-08T07:48:06;100978.40;;;
79488;BMP180;68949;53.176;18.088;2024-03-08T07:50:37;100981.80;;;
79488;BMP180;68949;53.176;18.088;2024-03-08T07:53:09;100979.80;;;
79488;BMP180;68949;53.176;18.088;2024-03-08T07:55:36;100974.60;;;
79488;BMP180;68949;53.176;18.088;2024-03-08T07:58:03;100973.80;;;
79488;BMP180;68949;53.176;18.088;2024-03-08T08:00:30;100978.40;;;
79488;BMP180;68949;53.176;18.088;2024-03-08T08:03:00;100978.60;;;
79488;BMP180;68949;53.176;18.088;2024-03-08T08:05:28;100982.00;;;
79488;BMP180;68949;53.176;18.088;2024-03-08T08:07:54;100972.20;;;
79488;BMP180;68949;53.176;18.088;2024-03-08T08:10:21;100968.40;;;
79488;BMP180;68949;53.176;18.088;2024-03-08T08:12:49;100961.60;;;
79488;BMP180;68949;53.176;18.088;2024-03-08T08:15:15;100957.60;;;
79488;BMP180;68949;53.176;18.088;2024-03-08T08:17:43;100963.60;;;
79488;BMP180;68949;53.176;18.088;2024-03-08T08:20:11;100964.00;;;
79488;BMP180;68949;53.176;18.088;2024-03-08T08:22:39;100959.80;;;
79488;BMP180;68949;53.176;18.088;2024-03-08T08:25:14;100963.60;;;
79488;BMP180;68949;53.176;18.088;2024-03-08T08:27:41;100955.40;;;
79488;BMP180;68949;53.176;18.088;2024-03-08T08:30:12;100950.80;;;
79488;BMP180;68949;53.176;18.088;2024-03-08T08:32:40;100945.60;;;
79488;BMP180;68949;53.176;18.088;2024-03-08T08:35:08;100953.00;;;
79488;BMP180;68949;53.176;18.088;2024-03-08T08:37:39;100947.00;;;
79488;BMP180;68949;53.176;18.088;2024-03-08T08:40:07;100947.40;;;
79488;BMP180;68949;53.176;18.088;2024-03-08T08:42:37;100948.40;;;
79488;BMP180;68949;53.176;18.088;2024-03-08T08:45:07;100944.20;;;
79488;BMP180;68949;53.176;18.088;2024-03-08T08:47:35;100939.80;;;
79488;BMP180;68949;53.176;18.088;2024-03-08T08:50:04;100930.60;;;
79488;BMP180;68949;53.176;18.088;2024-03-08T08:52:31;100929.20;;;
79488;BMP180;68949;53.176;18.088;2024-03-08T08:54:58;100926.60;;;
79488;BMP180;68949;53.176;18.088;2024-03-08T08:57:25;100927.20;;;
79488;BMP180;68949;53.176;18.088;2024-03-08T08:59:53;100930.20;;;
79488;BMP180;68949;53.176;18.088;2024-03-08T09:02:20;100928.00;;;
79488;BMP180;68949;53.176;18.088;2024-03-08T09:04:47;100925.60;;;
79488;BMP180;68949;53.176;18.088;2024-03-08T09:07:17;100920.40;;;
79488;BMP180;68949;53.176;18.088;2024-03-08T09:09:45;100919.00;;;
79488;BMP180;68949;53.176;18.088;2024-03-08T09:12:12;100905.80;;;
79488;BMP180;68949;53.176;18.088;2024-03-08T09:14:40;100901.80;;;
79488;BMP180;68949;53.176;18.088;2024-03-08T09:17:08;100901.80;;;
79488;BMP180;68949;53.176;18.088;2024-03-08T09:19:35;100900.40;;;
79488;BMP180;68949;53.176;18.088;2024-03-08T09:22:04;100893.20;;;
79488;BMP180;68949;53.176;18.088;2024-03-08T09:24:30;100900.00;;;
79488;BMP180;68949;53.176;18.088;2024-03-08T09:26:58;100883.40;;;
79488;BMP180;68949;53.176;18.088;2024-03-08T09:29:27;100881.80;;;
79488;BMP180;68949;53.176;18.088;2024-03-08T09:31:54;100884.40;;;
79488;BMP180;68949;53.176;18.088;2024-03-08T09:34:22;100872.60;;;
79488;BMP180;68949;53.176;18.088;2024-03-08T09:36:50;100869.60;;;
79488;BMP180;68949;53.176;18.088;2024-03-08T09:39:19;100864.80;;;
79488;BMP180;68949;53.176;18.088;2024-03-08T09:41:47;100864.80;;;
79488;BMP180;68949;53.176;18.088;2024-03-08T09:44:17;100852.80;;;
79488;BMP180;68949;53.176;18.088;2024-03-08T09:46:45;100843.40;;;
79488;BMP180;68949;53.176;18.088;2024-03-08T09:49:14;100838.60;;;
79488;BMP180;68949;53.176;18.088;2024-03-08T09:51:40;100843.20;;;
79488;BMP180;68949;53.176;18.088;2024-03-08T09:54:08;100839.00;;;
79488;BMP180;68949;53.176;18.088;2024-03-08T09:56:36;100843.00;;;
79488;BMP180;68949;53.176;18.088;2024-03-08T09:59:03;100836.40;;;
79488;BMP180;68949;53.176;18.088;2024-03-08T10:01:49;100825.00;;;
79488;BMP180;68949;53.176;18.088;2024-03-08T10:04:36;100817.00;;;
79488;BMP180;68949;53.176;18.088;2024-03-08T10:07:03;100802.00;;;
79488;BMP180;68949;53.176;18.088;2024-03-08T10:09:30;100799.20;;;
79488;BMP180;68949;53.176;18.088;2024-03-08T10:11:57;100797.60;;;
79488;BMP180;68949;53.176;18.088;2024-03-08T10:14:28;100797.40;;;
79488;BMP180;68949;53.176;18.088;2024-03-08T10:16:59;100794.00;;;
79488;BMP180;68949;53.176;18.088;2024-03-08T10:19:28;100780.60;;;
79488;BMP180;68949;53.176;18.088;2024-03-08T10:21:57;100782.20;;;
79488;BMP180;68949;53.176;18.088;2024-03-08T10:24:25;100782.40;;;
79488;BMP180;68949;53.176;18.088;2024-03-08T10:27:05;100778.60;;;
79488;BMP180;68949;53.176;18.088;2024-03-08T10:29:35;100770.80;;;
79488;BMP180;68949;53.176;18.088;2024-03-08T10:32:02;100761.40;;;
79488;BMP180;68949;53.176;18.088;2024-03-08T10:34:32;100757.40;;;
79488;BMP180;68949;53.176;18.088;2024-03-08T10:37:15;100750.40;;;
79488;BMP180;68949;53.176;18.088;2024-03-08T10:40:19;100772.60;;;
79488;BMP180;68949;53.176;18.088;2024-03-08T10:43:00;100754.80;;;
79488;BMP180;68949;53.176;18.088;2024-03-08T10:45:39;100733.00;;;
79488;BMP180;68949;53.176;18.088;2024-03-08T10:48:31;100741.40;;;
79488;BMP180;68949;53.176;18.088;2024-03-08T10:51:11;100719.60;;;
79488;BMP180;68949;53.176;18.088;2024-03-08T10:53:41;100735.80;;;
79488;BMP180;68949;53.176;18.088;2024-03-08T10:56:11;100737.00;;;
79488;BMP180;68949;53.176;18.088;2024-03-08T10:58:42;100737.00;;;
79488;BMP180;68949;53.176;18.088;2024-03-08T11:01:10;100740.40;;;
79488;BMP180;68949;53.176;18.088;2024-03-08T11:06:08;100768.00;;;
79488;BMP180;68949;53.176;18.088;2024-03-08T11:08:38;100746.40;;;
79488;BMP180;68949;53.176;18.088;2024-03-08T11:11:05;100736.40;;;
79488;BMP180;68949;53.176;18.088;2024-03-08T11:13:33;100751.60;;;
79488;BMP180;68949;53.176;18.088;2024-03-08T11:16:10;100740.40;;;
79488;BMP180;68949;53.176;18.088;2024-03-08T11:18:37;100724.60;;;
79488;BMP180;68949;53.176;18.088;2024-03-08T11:21:08;100733.80;;;
79488;BMP180;68949;53.176;18.088;2024-03-08T11:23:39;100739.00;;;
79488;BMP180;68949;53.176;18.088;2024-03-08T11:26:24;100739.20;;;
79488;BMP180;68949;53.176;18.088;2024-03-08T11:28:51;100743.40;;;
79488;BMP180;68949;53.176;18.088;2024-03-08T11:31:24;100733.80;;;
79488;BMP180;68949;53.176;18.088;2024-03-08T11:33:54;100734.20;;;
79488;BMP180;68949;53.176;18.088;2024-03-08T11:36:23;100735.40;;;
79488;BMP180;68949;53.176;18.088;2024-03-08T11:38:52;100719.40;;;
79488;BMP180;68949;53.176;18.088;2024-03-08T11:41:22;100675.80;;;
79488;BMP180;68949;53.176;18.088;2024-03-08T11:44:02;100667.80;;;
79488;BMP180;68949;53.176;18.088;2024-03-08T11:46:32;100681.60;;;
79488;BMP180;68949;53.176;18.088;2024-03-08T11:49:00;100677.00;;;
79488;BMP180;68949;53.176;18.088;2024-03-08T11:51:28;100681.20;;;
79488;BMP180;68949;53.176;18.088;2024-03-08T11:53:56;100643.60;;;
79488;BMP180;68949;53.176;18.088;2024-03-08T11:56:23;100632.20;;;
79488;BMP180;68949;53.176;18.088;2024-03-08T11:58:56;100642.80;;;
79488;BMP180;68949;53.176;18.088;2024-03-08T12:01:26;100637.60;;;
79488;BMP180;68949;53.176;18.088;2024-03-08T12:03:56;100634.60;;;
79488;BMP180;68949;53.176;18.088;2024-03-08T12:06:37;100619.40;;;
79488;BMP180;68949;53.176;18.088;2024-03-08T12:09:12;100644.60;;;
79488;BMP180;68949;53.176;18.088;2024-03-08T12:11:39;100627.60;;;
79488;BMP180;68949;53.176;18.088;2024-03-08T12:14:06;100615.20;;;
79488;BMP180;68949;53.176;18.088;2024-03-08T12:16:33;100593.60;;;
79488;BMP180;68949;53.176;18.088;2024-03-08T12:19:00;100588.60;;;
79488;BMP180;68949;53.176;18.088;2024-03-08T12:21:27;100589.60;;;
79488;BMP180;68949;53.176;18.088;2024-03-08T12:24:06;100594.20;;;
79488;BMP180;68949;53.176;18.088;2024-03-08T12:26:38;100609.20;;;
79488;BMP180;68949;53.176;18.088;2024-03-08T12:29:25;100602.20;;;
79488;BMP180;68949;53.176;18.088;2024-03-08T12:31:56;100608.80;;;
79488;BMP180;68949;53.176;18.088;2024-03-08T12:34:24;100578.80;;;
79488;BMP180;68949;53.176;18.088;2024-03-08T12:36:54;100579.40;;;
79488;BMP180;68949;53.176;18.088;2024-03-08T12:39:22;100556.60;;;
79488;BMP180;68949;53.176;18.088;2024-03-08T12:41:53;100581.80;;;
79488;BMP180;68949;53.176;18.088;2024-03-08T12:44:20;100586.00;;;
79488;BMP180;68949;53.176;18.088;2024-03-08T12:46:52;100599.40;;;
79488;BMP180;68949;53.176;18.088;2024-03-08T12:49:20;100576.40;;;
79488;BMP180;68949;53.176;18.088;2024-03-08T12:51:49;100607.80;;;
79488;BMP180;68949;53.176;18.088;2024-03-08T12:54:16;100584.20;;;
79488;BMP180;68949;53.176;18.088;2024-03-08T12:56:43;100593.20;;;
79488;BMP180;68949;53.176;18.088;2024-03-08T12:59:09;100575.80;;;
79488;BMP180;68949;53.176;18.088;2024-03-08T13:01:36;100582.80;;;
79488;BMP180;68949;53.176;18.088;2024-03-08T13:04:06;100573.00;;;
79488;BMP180;68949;53.176;18.088;2024-03-08T13:06:34;100567.80;;;
79488;BMP180;68949;53.176;18.088;2024-03-08T13:09:01;100584.20;;;
79488;BMP180;68949;53.176;18.088;2024-03-08T13:11:32;100569.80;;;
79488;BMP180;68949;53.176;18.088;2024-03-08T13:14:04;100573.00;;;
79488;BMP180;68949;53.176;18.088;2024-03-08T13:16:31;100574.20;;;
79488;BMP180;68949;53.176;18.088;2024-03-08T13:18:58;100571.80;;;
79488;BMP180;68949;53.176;18.088;2024-03-08T13:21:25;100567.80;;;
79488;BMP180;68949;53.176;18.088;2024-03-08T13:23:52;100554.00;;;
79488;BMP180;68949;53.176;18.088;2024-03-08T13:26:19;100565.00;;;
79488;BMP180;68949;53.176;18.088;2024-03-08T13:28:47;100545.80;;;
79488;BMP180;68949;53.176;18.088;2024-03-08T13:31:21;100535.80;;;
79488;BMP180;68949;53.176;18.088;2024-03-08T13:33:47;100529.20;;;
79488;BMP180;68949;53.176;18.088;2024-03-08T13:36:14;100536.40;;;
79488;BMP180;68949;53.176;18.088;2024-03-08T13:38:47;100547.40;;;
79488;BMP180;68949;53.176;18.088;2024-03-08T13:41:16;100552.20;;;
79488;BMP180;68949;53.176;18.088;2024-03-08T13:43:46;100555.40;;;
79488;BMP180;68949;53.176;18.088;2024-03-08T13:46:18;100530.00;;;
79488;BMP180;68949;53.176;18.088;2024-03-08T13:48:45;100537.00;;;
79488;BMP180;68949;53.176;18.088;2024-03-08T13:51:11;100537.80;;;
79488;BMP180;68949;53.176;18.088;2024-03-08T13:53:42;100532.00;;;
79488;BMP180;68949;53.176;18.088;2024-03-08T13:56:09;100540.00;;;
79488;BMP180;68949;53.176;18.088;2024-03-08T13:58:38;100525.20;;;
79488;BMP180;68949;53.176;18.088;2024-03-08T14:01:07;100516.60;;;
79488;BMP180;68949;53.176;18.088;2024-03-08T14:03:38;100514.00;;;
79488;BMP180;68949;53.176;18.088;2024-03-08T14:06:09;100517.20;;;
79488;BMP180;68949;53.176;18.088;2024-03-08T14:08:37;100523.40;;;
79488;BMP180;68949;53.176;18.088;2024-03-08T14:11:05;100517.40;;;
79488;BMP180;68949;53.176;18.088;2024-03-08T14:13:45;100511.40;;;
79488;BMP180;68949;53.176;18.088;2024-03-08T14:16:12;100513.20;;;
79488;BMP180;68949;53.176;18.088;2024-03-08T14:18:39;100509.20;;;
79488;BMP180;68949;53.176;18.088;2024-03-08T14:21:07;100499.60;;;
79488;BMP180;68949;53.176;18.088;2024-03-08T14:23:37;100502.60;;;
79488;BMP180;68949;53.176;18.088;2024-03-08T14:26:04;100492.00;;;
79488;BMP180;68949;53.176;18.088;2024-03-08T14:28:33;100508.20;;;
79488;BMP180;68949;53.176;18.088;2024-03-08T14:31:00;100496.40;;;
79488;BMP180;68949;53.176;18.088;2024-03-08T14:33:29;100500.40;;;
79488;BMP180;68949;53.176;18.088;2024-03-08T14:35:56;100486.40;;;
79488;BMP180;68949;53.176;18.088;2024-03-08T14:38:23;100485.80;;;
79488;BMP180;68949;53.176;18.088;2024-03-08T14:40:54;100478.40;;;
79488;BMP180;68949;53.176;18.088;2024-03-08T14:43:21;100492.00;;;
79488;BMP180;68949;53.176;18.088;2024-03-08T14:45:49;100493.20;;;
79488;BMP180;68949;53.176;18.088;2024-03-08T14:48:17;100503.60;;;
79488;BMP180;68949;53.176;18.088;2024-03-08T14:50:44;100492.40;;;
79488;BMP180;68949;53.176;18.088;2024-03-08T14:53:10;100493.40;;;
79488;BMP180;68949;53.176;18.088;2024-03-08T14:55:39;100476.00;;;
79488;BMP180;68949;53.176;18.088;2024-03-08T14:58:05;100481.40;;;
79488;BMP180;68949;53.176;18.088;2024-03-08T15:00:32;100477.40;;;